sensor_id;sensor_type;location;lat;lon;timestamp;temperature;humidity
19665;DHT22;9980;51.020;7.772;2023-02-24T00:01:55;10.00;99.90
19665;DHT22;9980;51.020;7.772;2023-02-24T00:04:29;10.00;99.90
19665;DHT22;9980;51.020;7.772;2023-02-24T00:07:01;10.00;99.90
19665;DHT22;9980;51.020;7.772;2023-02-24T00:09:29;10.00;99.90
19665;DHT22;9980;51.020;7.772;2023-02-24T00:12:04;10.00;99.90
19665;DHT22;9980;51.020;7.772;2023-02-24T00:14:36;10.00;99.90
19665;DHT22;9980;51.020;7.772;2023-02-24T00:17:05;10.00;99.90
19665;DHT22;9980;51.020;7.772;2023-02-24T00:19:37;10.00;99.90
19665;DHT22;9980;51.020;7.772;2023-02-24T00:22:06;10.00;99.90
19665;DHT22;9980;51.020;7.772;2023-02-24T00:24:34;10.00;99.90
19665;DHT22;9980;51.020;7.772;2023-02-24T00:27:03;10.00;99.90
19665;DHT22;9980;51.020;7.772;2023-02-24T00:29:33;10.00;99.90
19665;DHT22;9980;51.020;7.772;2023-02-24T00:32:03;9.90;99.90
19665;DHT22;9980;51.020;7.772;2023-02-24T00:34:34;9.90;99.90
19665;DHT22;9980;51.020;7.772;2023-02-24T00:37:03;9.90;99.90
19665;DHT22;9980;51.020;7.772;2023-02-24T00:39:37;9.90;99.90
19665;DHT22;9980;51.020;7.772;2023-02-24T00:42:10;9.90;99.90
19665;DHT22;9980;51.020;7.772;2023-02-24T00:44:39;9.90;99.90
19665;DHT22;9980;51.020;7.772;2023-02-24T00:47:10;9.90;99.90
19665;DHT22;9980;51.020;7.772;2023-02-24T00:49:40;9.90;99.90
19665;DHT22;9980;51.020;7.772;2023-02-24T00:52:10;9.90;99.90
19665;DHT22;9980;51.020;7.772;2023-02-24T00:54:43;9.90;99.90
19665;DHT22;9980;51.020;7.772;2023-02-24T00:57:12;9.90;99.90
19665;DHT22;9980;51.020;7.772;2023-02-24T00:59:39;9.90;99.90
19665;DHT22;9980;51.020;7.772;2023-02-24T01:02:06;9.90;99.90
19665;DHT22;9980;51.020;7.772;2023-02-24T01:04:34;9.90;99.90
19665;DHT22;9980;51.020;7.772;2023-02-24T01:07:05;9.90;99.90
19665;DHT22;9980;51.020;7.772;2023-02-24T01:09:38;9.90;99.90
19665;DHT22;9980;51.020;7.772;2023-02-24T01:12:10;9.90;99.90
19665;DHT22;9980;51.020;7.772;2023-02-24T01:14:50;9.80;99.90
19665;DHT22;9980;51.020;7.772;2023-02-24T01:17:19;9.80;99.90
19665;DHT22;9980;51.020;7.772;2023-02-24T01:19:47;9.80;99.90
19665;DHT22;9980;51.020;7.772;2023-02-24T01:22:17;9.80;99.90
19665;DHT22;9980;51.020;7.772;2023-02-24T01:24:45;9.80;99.90
19665;DHT22;9980;51.020;7.772;2023-02-24T01:27:15;9.80;99.90
19665;DHT22;9980;51.020;7.772;2023-02-24T01:29:46;9.80;99.90
19665;DHT22;9980;51.020;7.772;2023-02-24T01:32:19;9.80;99.90
19665;DHT22;9980;51.020;7.772;2023-02-24T01:34:50;9.80;99.90
19665;DHT22;9980;51.020;7.772;2023-02-24T01:37:19;9.80;99.90
19665;DHT22;9980;51.020;7.772;2023-02-24T01:39:50;9.80;99.90
19665;DHT22;9980;51.020;7.772;2023-02-24T01:42:19;9.80;99.90
19665;DHT22;9980;51.020;7.772;2023-02-24T01:47:15;9.80;99.90
19665;DHT22;9980;51.020;7.772;2023-02-24T01:49:49;9.80;99.90
19665;DHT22;9980;51.020;7.772;2023-02-24T01:52:20;9.80;99.90
19665;DHT22;9980;51.020;7.772;2023-02-24T01:57:25;9.70;99.90
19665;DHT22;9980;51.020;7.772;2023-02-24T01:59:57;9.70;99.90
19665;DHT22;9980;51.020;7.772;2023-02-24T02:02:45;9.70;99.90
19665;DHT22;9980;51.020;7.772;2023-02-24T02:05:16;9.70;99.90
19665;DHT22;9980;51.020;7.772;2023-02-24T02:07:44;9.70;99.90
19665;DHT22;9980;51.020;7.772;2023-02-24T02:10:12;9.70;99.90
19665;DHT22;9980;51.020;7.772;2023-02-24T02:12:41;9.70;99.90
19665;DHT22;9980;51.020;7.772;2023-02-24T02:15:14;9.70;99.90
19665;DHT22;9980;51.020;7.772;2023-02-24T02:21:05;9.60;99.90
19665;DHT22;9980;51.020;7.772;2023-02-24T02:27:18;9.60;99.90
19665;DHT22;9980;51.020;7.772;2023-02-24T02:36:21;9.50;99.90
19665;DHT22;9980;51.020;7.772;2023-02-24T02:48:00;9.40;99.90
19665;DHT22;9980;51.020;7.772;2023-02-24T02:50:35;9.40;99.90
19665;DHT22;9980;51.020;7.772;2023-02-24T02:53:34;9.40;99.90
19665;DHT22;9980;51.020;7.772;2023-02-24T02:56:24;9.40;99.90
19665;DHT22;9980;51.020;7.772;2023-02-24T02:58:57;9.40;99.90
19665;DHT22;9980;51.020;7.772;2023-02-24T03:01:32;9.30;99.90
19665;DHT22;9980;51.020;7.772;2023-02-24T03:04:05;9.30;99.90
19665;DHT22;9980;51.020;7.772;2023-02-24T03:06:49;9.30;99.90
19665;DHT22;9980;51.020;7.772;2023-02-24T03:09:31;9.30;99.90
19665;DHT22;9980;51.020;7.772;2023-02-24T03:12:09;9.30;99.90
19665;DHT22;9980;51.020;7.772;2023-02-24T03:14:45;9.20;99.90
19665;DHT22;9980;51.020;7.772;2023-02-24T03:17:22;9.20;99.90
19665;DHT22;9980;51.020;7.772;2023-02-24T03:20:09;9.20;99.90
19665;DHT22;9980;51.020;7.772;2023-02-24T03:22:46;9.10;99.90
19665;DHT22;9980;51.020;7.772;2023-02-24T03:25:25;9.10;99.90
19665;DHT22;9980;51.020;7.772;2023-02-24T03:28:00;9.10;99.90
19665;DHT22;9980;51.020;7.772;2023-02-24T03:30:43;9.10;99.90
19665;DHT22;9980;51.020;7.772;2023-02-24T03:33:45;9.10;99.90
19665;DHT22;9980;51.020;7.772;2023-02-24T03:36:22;9.10;99.90
19665;DHT22;9980;51.020;7.772;2023-02-24T03:38:50;9.10;99.90
19665;DHT22;9980;51.020;7.772;2023-02-24T03:41:18;9.00;99.90
19665;DHT22;9980;51.020;7.772;2023-02-24T03:43:46;9.00;99.90
19665;DHT22;9980;51.020;7.772;2023-02-24T03:46:16;9.00;99.90
19665;DHT22;9980;51.020;7.772;2023-02-24T03:48:49;9.00;99.90
19665;DHT22;9980;51.020;7.772;2023-02-24T03:51:22;8.90;99.90
19665;DHT22;9980;51.020;7.772;2023-02-24T03:57:10;8.90;99.90
19665;DHT22;9980;51.020;7.772;2023-02-24T04:02:27;8.90;99.90
19665;DHT22;9980;51.020;7.772;2023-02-24T04:05:12;8.80;99.90
19665;DHT22;9980;51.020;7.772;2023-02-24T04:10:36;8.80;99.90
19665;DHT22;9980;51.020;7.772;2023-02-24T04:13:37;8.80;99.90
19665;DHT22;9980;51.020;7.772;2023-02-24T04:16:47;8.80;99.90
19665;DHT22;9980;51.020;7.772;2023-02-24T04:19:26;8.80;99.90
19665;DHT22;9980;51.020;7.772;2023-02-24T04:21:58;8.80;99.90
19665;DHT22;9980;51.020;7.772;2023-02-24T04:24:29;8.80;99.90
19665;DHT22;9980;51.020;7.772;2023-02-24T04:27:00;8.80;99.90
19665;DHT22;9980;51.020;7.772;2023-02-24T04:29:38;8.70;99.90
19665;DHT22;9980;51.020;7.772;2023-02-24T04:32:17;8.70;99.90
19665;DHT22;9980;51.020;7.772;2023-02-24T04:34:48;8.70;99.90
19665;DHT22;9980;51.020;7.772;2023-02-24T04:37:15;8.70;99.90
19665;DHT22;9980;51.020;7.772;2023-02-24T04:39:43;8.70;99.90
19665;DHT22;9980;51.020;7.772;2023-02-24T04:42:20;8.70;99.90
19665;DHT22;9980;51.020;7.772;2023-02-24T04:44:47;8.70;99.90
19665;DHT22;9980;51.020;7.772;2023-02-24T04:47:14;8.70;99.90
19665;DHT22;9980;51.020;7.772;2023-02-24T04:49:41;8.60;99.90
19665;DHT22;9980;51.020;7.772;2023-02-24T04:52:10;8.70;99.90
19665;DHT22;9980;51.020;7.772;2023-02-24T04:54:37;8.60;99.90
19665;DHT22;9980;51.020;7.772;2023-02-24T04:57:04;8.60;99.90
19665;DHT22;9980;51.020;7.772;2023-02-24T04:59:32;8.60;99.90
19665;DHT22;9980;51.020;7.772;2023-02-24T05:01:59;8.60;99.90
19665;DHT22;9980;51.020;7.772;2023-02-24T05:04:27;8.60;99.90
19665;DHT22;9980;51.020;7.772;2023-02-24T05:06:57;8.60;99.90
19665;DHT22;9980;51.020;7.772;2023-02-24T05:09:24;8.60;99.90
19665;DHT22;9980;51.020;7.772;2023-02-24T05:11:56;8.50;99.90
19665;DHT22;9980;51.020;7.772;2023-02-24T05:14:23;8.50;99.90
19665;DHT22;9980;51.020;7.772;2023-02-24T05:16:50;8.50;99.90
19665;DHT22;9980;51.020;7.772;2023-02-24T05:19:18;8.50;99.90
19665;DHT22;9980;51.020;7.772;2023-02-24T05:22:07;8.50;99.90
19665;DHT22;9980;51.020;7.772;2023-02-24T05:24:36;8.40;99.90
19665;DHT22;9980;51.020;7.772;2023-02-24T05:27:04;8.40;99.90
19665;DHT22;9980;51.020;7.772;2023-02-24T05:29:33;8.40;99.90
19665;DHT22;9980;51.020;7.772;2023-02-24T05:32:01;8.40;99.90
19665;DHT22;9980;51.020;7.772;2023-02-24T05:34:31;8.30;99.90
19665;DHT22;9980;51.020;7.772;2023-02-24T05:37:01;8.30;99.90
19665;DHT22;9980;51.020;7.772;2023-02-24T05:39:36;8.30;99.90
19665;DHT22;9980;51.020;7.772;2023-02-24T05:42:03;8.20;99.90
19665;DHT22;9980;51.020;7.772;2023-02-24T05:44:32;8.20;99.90
19665;DHT22;9980;51.020;7.772;2023-02-24T05:47:01;8.20;99.90
19665;DHT22;9980;51.020;7.772;2023-02-24T05:49:33;8.10;99.90
19665;DHT22;9980;51.020;7.772;2023-02-24T05:52:03;8.10;99.90
19665;DHT22;9980;51.020;7.772;2023-02-24T05:54:41;8.10;99.90
19665;DHT22;9980;51.020;7.772;2023-02-24T05:57:15;8.00;99.90
19665;DHT22;9980;51.020;7.772;2023-02-24T05:59:48;8.00;99.90
19665;DHT22;9980;51.020;7.772;2023-02-24T06:02:18;8.00;99.90
19665;DHT22;9980;51.020;7.772;2023-02-24T06:04:53;7.90;99.90
19665;DHT22;9980;51.020;7.772;2023-02-24T06:07:26;7.90;99.90
19665;DHT22;9980;51.020;7.772;2023-02-24T06:09:56;7.80;99.90
19665;DHT22;9980;51.020;7.772;2023-02-24T06:12:30;7.80;99.90
19665;DHT22;9980;51.020;7.772;2023-02-24T06:15:00;7.80;99.90
19665;DHT22;9980;51.020;7.772;2023-02-24T06:17:28;7.80;99.90
19665;DHT22;9980;51.020;7.772;2023-02-24T06:19:55;7.70;99.90
19665;DHT22;9980;51.020;7.772;2023-02-24T06:22:23;7.70;99.90
19665;DHT22;9980;51.020;7.772;2023-02-24T06:24:53;7.70;99.90
19665;DHT22;9980;51.020;7.772;2023-02-24T06:27:21;7.60;99.90
19665;DHT22;9980;51.020;7.772;2023-02-24T06:29:51;7.60;99.90
19665;DHT22;9980;51.020;7.772;2023-02-24T06:32:22;7.60;99.90
19665;DHT22;9980;51.020;7.772;2023-02-24T06:34:51;7.50;99.90
19665;DHT22;9980;51.020;7.772;2023-02-24T06:37:19;7.50;99.90
19665;DHT22;9980;51.020;7.772;2023-02-24T06:39:48;7.50;99.90
19665;DHT22;9980;51.020;7.772;2023-02-24T06:42:15;7.50;99.90
19665;DHT22;9980;51.020;7.772;2023-02-24T06:44:42;7.40;99.90
19665;DHT22;9980;51.020;7.772;2023-02-24T06:47:13;7.40;99.90
19665;DHT22;9980;51.020;7.772;2023-02-24T06:49:40;7.40;99.90
19665;DHT22;9980;51.020;7.772;2023-02-24T06:52:08;7.30;99.90
19665;DHT22;9980;51.020;7.772;2023-02-24T06:54:37;7.30;99.90
19665;DHT22;9980;51.020;7.772;2023-02-24T06:57:03;7.30;99.90
19665;DHT22;9980;51.020;7.772;2023-02-24T06:59:30;7.30;99.90
19665;DHT22;9980;51.020;7.772;2023-02-24T07:01:58;7.20;99.90
19665;DHT22;9980;51.020;7.772;2023-02-24T07:04:28;7.20;99.90
19665;DHT22;9980;51.020;7.772;2023-02-24T07:06:57;7.20;99.90
19665;DHT22;9980;51.020;7.772;2023-02-24T07:09:30;7.20;99.90
19665;DHT22;9980;51.020;7.772;2023-02-24T07:12:09;7.20;99.90
19665;DHT22;9980;51.020;7.772;2023-02-24T07:14:37;7.20;99.90
19665;DHT22;9980;51.020;7.772;2023-02-24T07:17:07;7.20;99.90
19665;DHT22;9980;51.020;7.772;2023-02-24T07:19:34;7.20;99.90
19665;DHT22;9980;51.020;7.772;2023-02-24T07:22:03;7.20;99.90
19665;DHT22;9980;51.020;7.772;2023-02-24T07:24:34;7.20;99.90
19665;DHT22;9980;51.020;7.772;2023-02-24T07:27:07;7.20;99.90
19665;DHT22;9980;51.020;7.772;2023-02-24T07:29:49;7.20;99.90
19665;DHT22;9980;51.020;7.772;2023-02-24T07:32:21;7.20;99.90
19665;DHT22;9980;51.020;7.772;2023-02-24T07:34:48;7.20;99.90
19665;DHT22;9980;51.020;7.772;2023-02-24T07:37:15;7.20;99.90
19665;DHT22;9980;51.020;7.772;2023-02-24T07:39:42;7.20;99.90
19665;DHT22;9980;51.020;7.772;2023-02-24T07:42:10;7.20;99.90
19665;DHT22;9980;51.020;7.772;2023-02-24T07:44:42;7.20;99.90
19665;DHT22;9980;51.020;7.772;2023-02-24T07:47:11;7.20;99.90
19665;DHT22;9980;51.020;7.772;2023-02-24T07:49:39;7.20;99.90
19665;DHT22;9980;51.020;7.772;2023-02-24T07:52:07;7.20;99.90
19665;DHT22;9980;51.020;7.772;2023-02-24T07:54:35;7.30;99.90
19665;DHT22;9980;51.020;7.772;2023-02-24T07:57:04;7.30;99.90
19665;DHT22;9980;51.020;7.772;2023-02-24T07:59:33;7.30;99.90
19665;DHT22;9980;51.020;7.772;2023-02-24T08:02:03;7.30;99.90
19665;DHT22;9980;51.020;7.772;2023-02-24T08:04:33;7.30;99.90
19665;DHT22;9980;51.020;7.772;2023-02-24T08:07:02;7.40;99.90
19665;DHT22;9980;51.020;7.772;2023-02-24T08:09:31;7.40;99.90
19665;DHT22;9980;51.020;7.772;2023-02-24T08:12:16;7.40;99.90
19665;DHT22;9980;51.020;7.772;2023-02-24T08:14:49;7.40;99.90
19665;DHT22;9980;51.020;7.772;2023-02-24T08:17:22;7.50;99.90
19665;DHT22;9980;51.020;7.772;2023-02-24T08:19:53;7.50;99.90
19665;DHT22;9980;51.020;7.772;2023-02-24T08:22:42;7.50;99.90
19665;DHT22;9980;51.020;7.772;2023-02-24T08:25:13;7.50;99.90
19665;DHT22;9980;51.020;7.772;2023-02-24T08:27:46;7.60;99.90
19665;DHT22;9980;51.020;7.772;2023-02-24T08:30:37;7.60;99.90
19665;DHT22;9980;51.020;7.772;2023-02-24T08:33:20;7.60;99.90
19665;DHT22;9980;51.020;7.772;2023-02-24T08:35:52;7.60;99.90
19665;DHT22;9980;51.020;7.772;2023-02-24T08:38:30;7.60;99.90
19665;DHT22;9980;51.020;7.772;2023-02-24T08:41:10;7.70;99.90
19665;DHT22;9980;51.020;7.772;2023-02-24T08:43:44;7.70;99.90
19665;DHT22;9980;51.020;7.772;2023-02-24T08:46:14;7.70;99.90
19665;DHT22;9980;51.020;7.772;2023-02-24T08:48:47;7.80;99.90
19665;DHT22;9980;51.020;7.772;2023-02-24T08:54:02;7.80;99.90
19665;DHT22;9980;51.020;7.772;2023-02-24T08:56:45;7.80;99.90
19665;DHT22;9980;51.020;7.772;2023-02-24T08:59:23;7.80;99.90
19665;DHT22;9980;51.020;7.772;2023-02-24T09:02:17;7.90;99.90
19665;DHT22;9980;51.020;7.772;2023-02-24T09:04:50;7.90;99.90
19665;DHT22;9980;51.020;7.772;2023-02-24T09:10:05;7.90;99.90
19665;DHT22;9980;51.020;7.772;2023-02-24T09:12:43;7.90;99.90
19665;DHT22;9980;51.020;7.772;2023-02-24T09:15:12;7.90;99.90
19665;DHT22;9980;51.020;7.772;2023-02-24T09:17:42;7.80;99.90
19665;DHT22;9980;51.020;7.772;2023-02-24T09:20:21;7.80;99.90
19665;DHT22;9980;51.020;7.772;2023-02-24T09:23:11;7.80;99.90
19665;DHT22;9980;51.020;7.772;2023-02-24T09:25:46;7.80;99.90
19665;DHT22;9980;51.020;7.772;2023-02-24T09:28:21;7.80;99.90
19665;DHT22;9980;51.020;7.772;2023-02-24T09:30:58;7.80;99.90
19665;DHT22;9980;51.020;7.772;2023-02-24T09:33:36;7.80;99.90
19665;DHT22;9980;51.020;7.772;2023-02-24T09:36:14;7.80;99.90
19665;DHT22;9980;51.020;7.772;2023-02-24T09:38:55;7.80;99.90
19665;DHT22;9980;51.020;7.772;2023-02-24T09:41:37;7.80;99.90
19665;DHT22;9980;51.020;7.772;2023-02-24T09:44:39;7.80;99.90
19665;DHT22;9980;51.020;7.772;2023-02-24T09:47:27;7.80;99.90
19665;DHT22;9980;51.020;7.772;2023-02-24T09:53:11;7.70;99.90
19665;DHT22;9980;51.020;7.772;2023-02-24T09:55:53;7.70;99.90
19665;DHT22;9980;51.020;7.772;2023-02-24T10:01:42;7.70;99.90
19665;DHT22;9980;51.020;7.772;2023-02-24T10:04:40;7.70;99.90
19665;DHT22;9980;51.020;7.772;2023-02-24T10:07:30;7.70;99.90
19665;DHT22;9980;51.020;7.772;2023-02-24T10:10:21;7.70;99.90
19665;DHT22;9980;51.020;7.772;2023-02-24T10:12:59;7.70;99.90
19665;DHT22;9980;51.020;7.772;2023-02-24T10:15:43;7.70;99.90
19665;DHT22;9980;51.020;7.772;2023-02-24T10:18:45;7.80;99.90
19665;DHT22;9980;51.020;7.772;2023-02-24T10:21:57;7.80;99.90
19665;DHT22;9980;51.020;7.772;2023-02-24T10:24:49;7.80;99.90
19665;DHT22;9980;51.020;7.772;2023-02-24T10:27:32;7.80;99.90
19665;DHT22;9980;51.020;7.772;2023-02-24T10:30:26;7.80;99.90
19665;DHT22;9980;51.020;7.772;2023-02-24T10:33:21;7.80;99.90
19665;DHT22;9980;51.020;7.772;2023-02-24T10:36:08;7.80;99.90
19665;DHT22;9980;51.020;7.772;2023-02-24T10:38:40;7.80;99.90
19665;DHT22;9980;51.020;7.772;2023-02-24T10:41:13;7.80;99.90
19665;DHT22;9980;51.020;7.772;2023-02-24T10:43:52;7.80;99.90
19665;DHT22;9980;51.020;7.772;2023-02-24T10:46:29;7.80;99.90
19665;DHT22;9980;51.020;7.772;2023-02-24T10:49:17;7.80;99.90
19665;DHT22;9980;51.020;7.772;2023-02-24T10:51:51;7.80;99.90
19665;DHT22;9980;51.020;7.772;2023-02-24T10:54:27;7.80;99.90
19665;DHT22;9980;51.020;7.772;2023-02-24T10:57:21;7.80;99.90
19665;DHT22;9980;51.020;7.772;2023-02-24T11:00:17;7.80;99.90
19665;DHT22;9980;51.020;7.772;2023-02-24T11:02:56;7.80;99.90
19665;DHT22;9980;51.020;7.772;2023-02-24T11:05:38;7.80;99.90
19665;DHT22;9980;51.020;7.772;2023-02-24T11:08:32;7.80;99.90
19665;DHT22;9980;51.020;7.772;2023-02-24T11:11:19;7.80;99.90
19665;DHT22;9980;51.020;7.772;2023-02-24T11:14:13;7.80;99.90
19665;DHT22;9980;51.020;7.772;2023-02-24T11:17:02;7.70;99.90
19665;DHT22;9980;51.020;7.772;2023-02-24T11:19:43;7.80;99.90
19665;DHT22;9980;51.020;7.772;2023-02-24T11:22:41;7.70;99.90
19665;DHT22;9980;51.020;7.772;2023-02-24T11:25:23;7.70;99.90
19665;DHT22;9980;51.020;7.772;2023-02-24T11:27:55;7.70;99.90
19665;DHT22;9980;51.020;7.772;2023-02-24T11:31:23;7.70;99.90
19665;DHT22;9980;51.020;7.772;2023-02-24T11:34:05;7.60;99.90
19665;DHT22;9980;51.020;7.772;2023-02-24T11:37:03;7.60;99.90
19665;DHT22;9980;51.020;7.772;2023-02-24T11:45:34;7.50;99.90
19665;DHT22;9980;51.020;7.772;2023-02-24T11:48:12;7.50;99.90
19665;DHT22;9980;51.020;7.772;2023-02-24T11:54:02;7.50;99.90
19665;DHT22;9980;51.020;7.772;2023-02-24T11:56:43;7.40;99.90
19665;DHT22;9980;51.020;7.772;2023-02-24T11:59:36;7.40;99.90
19665;DHT22;9980;51.020;7.772;2023-02-24T12:05:15;7.30;99.90
19665;DHT22;9980;51.020;7.772;2023-02-24T12:07:52;7.30;99.90
19665;DHT22;9980;51.020;7.772;2023-02-24T12:10:26;7.30;99.90
19665;DHT22;9980;51.020;7.772;2023-02-24T12:15:48;7.30;99.90
19665;DHT22;9980;51.020;7.772;2023-02-24T12:18:36;7.30;99.90
19665;DHT22;9980;51.020;7.772;2023-02-24T12:24:23;7.30;99.90
19665;DHT22;9980;51.020;7.772;2023-02-24T12:30:32;7.20;99.90
19665;DHT22;9980;51.020;7.772;2023-02-24T12:33:55;7.20;99.90
19665;DHT22;9980;51.020;7.772;2023-02-24T12:37:13;7.30;99.90
19665;DHT22;9980;51.020;7.772;2023-02-24T12:45:37;7.30;99.90
19665;DHT22;9980;51.020;7.772;2023-02-24T12:54:30;7.40;99.90
19665;DHT22;9980;51.020;7.772;2023-02-24T12:57:35;7.50;99.90
19665;DHT22;9980;51.020;7.772;2023-02-24T13:08:08;7.50;99.90
19665;DHT22;9980;51.020;7.772;2023-02-24T13:11:32;7.50;99.90
19665;DHT22;9980;51.020;7.772;2023-02-24T13:13:42;7.60;99.90
19665;DHT22;9980;51.020;7.772;2023-02-24T13:16:34;7.60;99.90
19665;DHT22;9980;51.020;7.772;2023-02-24T13:19:27;7.60;99.90
19665;DHT22;9980;51.020;7.772;2023-02-24T13:27:27;7.50;99.90
19665;DHT22;9980;51.020;7.772;2023-02-24T13:32:40;7.50;99.90
19665;DHT22;9980;51.020;7.772;2023-02-24T13:37:45;7.50;99.90
19665;DHT22;9980;51.020;7.772;2023-02-24T13:45:24;7.50;99.90
19665;DHT22;9980;51.020;7.772;2023-02-24T13:53:47;7.50;99.90
19665;DHT22;9980;51.020;7.772;2023-02-24T13:56:50;7.40;99.90
19665;DHT22;9980;51.020;7.772;2023-02-24T13:59:52;7.40;99.90
19665;DHT22;9980;51.020;7.772;2023-02-24T14:02:39;7.40;99.90
19665;DHT22;9980;51.020;7.772;2023-02-24T14:05:29;7.40;99.90
19665;DHT22;9980;51.020;7.772;2023-02-24T14:08:00;7.40;99.90
19665;DHT22;9980;51.020;7.772;2023-02-24T14:10:32;7.40;99.90
19665;DHT22;9980;51.020;7.772;2023-02-24T14:13:16;7.30;99.90
19665;DHT22;9980;51.020;7.772;2023-02-24T14:15:46;7.30;99.90
19665;DHT22;9980;51.020;7.772;2023-02-24T14:18:23;7.30;99.90
19665;DHT22;9980;51.020;7.772;2023-02-24T14:20:53;7.30;99.90
19665;DHT22;9980;51.020;7.772;2023-02-24T14:23:28;7.30;99.90
19665;DHT22;9980;51.020;7.772;2023-02-24T14:26:07;7.20;99.90
19665;DHT22;9980;51.020;7.772;2023-02-24T14:28:38;7.20;99.90
19665;DHT22;9980;51.020;7.772;2023-02-24T14:31:11;7.20;99.90
19665;DHT22;9980;51.020;7.772;2023-02-24T14:33:42;7.20;99.90
19665;DHT22;9980;51.020;7.772;2023-02-24T14:36:16;7.10;99.90
19665;DHT22;9980;51.020;7.772;2023-02-24T14:39:17;7.10;99.90
19665;DHT22;9980;51.020;7.772;2023-02-24T14:41:50;7.10;99.90
19665;DHT22;9980;51.020;7.772;2023-02-24T14:44:29;7.10;99.90
19665;DHT22;9980;51.020;7.772;2023-02-24T14:46:58;7.10;99.90
19665;DHT22;9980;51.020;7.772;2023-02-24T14:49:34;7.00;99.90
19665;DHT22;9980;51.020;7.772;2023-02-24T14:52:24;7.00;99.90
19665;DHT22;9980;51.020;7.772;2023-02-24T14:57:56;7.00;99.90
19665;DHT22;9980;51.020;7.772;2023-02-24T15:00:49;6.90;99.90
19665;DHT22;9980;51.020;7.772;2023-02-24T15:03:39;6.90;99.90
19665;DHT22;9980;51.020;7.772;2023-02-24T15:06:29;6.90;99.90
19665;DHT22;9980;51.020;7.772;2023-02-24T15:09:13;6.80;99.90
19665;DHT22;9980;51.020;7.772;2023-02-24T15:11:44;6.80;99.90
19665;DHT22;9980;51.020;7.772;2023-02-24T15:14:30;6.70;99.90
19665;DHT22;9980;51.020;7.772;2023-02-24T15:17:07;6.70;99.90
19665;DHT22;9980;51.020;7.772;2023-02-24T15:19:40;6.60;99.90
19665;DHT22;9980;51.020;7.772;2023-02-24T15:25:20;6.60;99.90
19665;DHT22;9980;51.020;7.772;2023-02-24T15:28:06;6.60;99.90
19665;DHT22;9980;51.020;7.772;2023-02-24T15:30:58;6.50;99.90
19665;DHT22;9980;51.020;7.772;2023-02-24T15:33:45;6.50;99.90
19665;DHT22;9980;51.020;7.772;2023-02-24T15:36:24;6.50;99.90
19665;DHT22;9980;51.020;7.772;2023-02-24T15:39:00;6.50;99.90
19665;DHT22;9980;51.020;7.772;2023-02-24T15:41:41;6.50;99.90
19665;DHT22;9980;51.020;7.772;2023-02-24T15:44:28;6.50;99.90
19665;DHT22;9980;51.020;7.772;2023-02-24T15:46:58;6.40;99.90
19665;DHT22;9980;51.020;7.772;2023-02-24T15:49:26;6.40;99.90
19665;DHT22;9980;51.020;7.772;2023-02-24T15:51:54;6.40;99.90
19665;DHT22;9980;51.020;7.772;2023-02-24T15:54:31;6.40;99.90
19665;DHT22;9980;51.020;7.772;2023-02-24T15:57:02;6.40;99.90
19665;DHT22;9980;51.020;7.772;2023-02-24T15:59:30;6.40;99.90
19665;DHT22;9980;51.020;7.772;2023-02-24T16:01:57;6.30;99.90
19665;DHT22;9980;51.020;7.772;2023-02-24T16:04:24;6.30;99.90
19665;DHT22;9980;51.020;7.772;2023-02-24T16:06:55;6.30;99.90
19665;DHT22;9980;51.020;7.772;2023-02-24T16:09:32;6.30;99.90
19665;DHT22;9980;51.020;7.772;2023-02-24T16:12:26;6.30;99.90
19665;DHT22;9980;51.020;7.772;2023-02-24T16:15:01;6.30;99.90
19665;DHT22;9980;51.020;7.772;2023-02-24T16:20:12;6.30;99.90
19665;DHT22;9980;51.020;7.772;2023-02-24T16:22:40;6.30;99.90
19665;DHT22;9980;51.020;7.772;2023-02-24T16:25:09;6.30;99.90
19665;DHT22;9980;51.020;7.772;2023-02-24T16:27:39;6.30;99.90
19665;DHT22;9980;51.020;7.772;2023-02-24T16:30:14;6.30;99.90
19665;DHT22;9980;51.020;7.772;2023-02-24T16:32:44;6.30;99.90
19665;DHT22;9980;51.020;7.772;2023-02-24T16:35:12;6.30;99.90
19665;DHT22;9980;51.020;7.772;2023-02-24T16:37:39;6.30;99.90
19665;DHT22;9980;51.020;7.772;2023-02-24T16:42:55;6.30;99.90
19665;DHT22;9980;51.020;7.772;2023-02-24T16:45:26;6.30;99.90
19665;DHT22;9980;51.020;7.772;2023-02-24T16:47:57;6.30;99.90
19665;DHT22;9980;51.020;7.772;2023-02-24T16:50:31;6.30;99.90
19665;DHT22;9980;51.020;7.772;2023-02-24T16:53:01;6.30;99.90
19665;DHT22;9980;51.020;7.772;2023-02-24T16:55:28;6.30;99.90
19665;DHT22;9980;51.020;7.772;2023-02-24T16:57:55;6.30;99.90
19665;DHT22;9980;51.020;7.772;2023-02-24T17:00:22;6.30;99.90
19665;DHT22;9980;51.020;7.772;2023-02-24T17:02:50;6.30;99.90
19665;DHT22;9980;51.020;7.772;2023-02-24T17:05:26;6.30;99.90
19665;DHT22;9980;51.020;7.772;2023-02-24T17:07:56;6.30;99.90
19665;DHT22;9980;51.020;7.772;2023-02-24T17:10:24;6.30;99.90
19665;DHT22;9980;51.020;7.772;2023-02-24T17:12:51;6.40;99.90
19665;DHT22;9980;51.020;7.772;2023-02-24T17:15:23;6.40;99.90
19665;DHT22;9980;51.020;7.772;2023-02-24T17:17:50;6.40;99.90
19665;DHT22;9980;51.020;7.772;2023-02-24T17:20:20;6.40;99.90
19665;DHT22;9980;51.020;7.772;2023-02-24T17:22:47;6.40;99.90
19665;DHT22;9980;51.020;7.772;2023-02-24T17:25:15;6.40;99.90
19665;DHT22;9980;51.020;7.772;2023-02-24T17:27:45;6.40;99.90
19665;DHT22;9980;51.020;7.772;2023-02-24T17:30:14;6.40;99.90
19665;DHT22;9980;51.020;7.772;2023-02-24T17:32:43;6.40;99.90
19665;DHT22;9980;51.020;7.772;2023-02-24T17:35:10;6.40;99.90
19665;DHT22;9980;51.020;7.772;2023-02-24T17:37:37;6.40;99.90
19665;DHT22;9980;51.020;7.772;2023-02-24T17:40:05;6.50;99.90
19665;DHT22;9980;51.020;7.772;2023-02-24T17:42:33;6.50;99.90
19665;DHT22;9980;51.020;7.772;2023-02-24T17:45:00;6.50;99.90
19665;DHT22;9980;51.020;7.772;2023-02-24T17:47:29;6.50;99.90
19665;DHT22;9980;51.020;7.772;2023-02-24T17:49:59;6.50;99.90
19665;DHT22;9980;51.020;7.772;2023-02-24T17:52:30;6.50;99.90
19665;DHT22;9980;51.020;7.772;2023-02-24T17:55:00;6.50;99.90
19665;DHT22;9980;51.020;7.772;2023-02-24T17:57:27;6.60;99.90
19665;DHT22;9980;51.020;7.772;2023-02-24T17:59:55;6.60;99.90
19665;DHT22;9980;51.020;7.772;2023-02-24T18:02:22;6.60;99.90
19665;DHT22;9980;51.020;7.772;2023-02-24T18:04:52;6.60;99.90
19665;DHT22;9980;51.020;7.772;2023-02-24T18:07:25;6.60;99.90
19665;DHT22;9980;51.020;7.772;2023-02-24T18:09:57;6.60;99.90
19665;DHT22;9980;51.020;7.772;2023-02-24T18:12:25;6.70;99.90
19665;DHT22;9980;51.020;7.772;2023-02-24T18:14:58;6.70;99.90
19665;DHT22;9980;51.020;7.772;2023-02-24T18:17:36;6.70;99.90
19665;DHT22;9980;51.020;7.772;2023-02-24T18:20:09;6.70;99.90
19665;DHT22;9980;51.020;7.772;2023-02-24T18:22:37;6.70;99.90
19665;DHT22;9980;51.020;7.772;2023-02-24T18:25:05;6.70;99.90
19665;DHT22;9980;51.020;7.772;2023-02-24T18:27:34;6.70;99.90
19665;DHT22;9980;51.020;7.772;2023-02-24T18:30:02;6.70;99.90
19665;DHT22;9980;51.020;7.772;2023-02-24T18:32:32;6.70;99.90
19665;DHT22;9980;51.020;7.772;2023-02-24T18:35:00;6.70;99.90
19665;DHT22;9980;51.020;7.772;2023-02-24T18:37:27;6.80;99.90
19665;DHT22;9980;51.020;7.772;2023-02-24T18:39:54;6.80;99.90
19665;DHT22;9980;51.020;7.772;2023-02-24T18:42:24;6.80;99.90
19665;DHT22;9980;51.020;7.772;2023-02-24T18:44:52;6.80;99.90
19665;DHT22;9980;51.020;7.772;2023-02-24T18:47:22;6.80;99.90
19665;DHT22;9980;51.020;7.772;2023-02-24T18:49:51;6.80;99.90
19665;DHT22;9980;51.020;7.772;2023-02-24T18:52:20;6.80;99.90
19665;DHT22;9980;51.020;7.772;2023-02-24T18:55:05;6.80;99.90
19665;DHT22;9980;51.020;7.772;2023-02-24T18:57:32;6.80;99.90